createdAt,value
2018-02-08T00:00:47.280Z,0.20
2018-02-08T00:03:14.940Z,0.10
2018-02-08T00:05:42.589Z,0.20
2018-02-08T00:08:10.294Z,0.20
2018-02-08T00:10:37.936Z,0.20
2018-02-08T00:13:05.587Z,0.20
2018-02-08T00:15:33.705Z,0.30
2018-02-08T00:18:01.372Z,0.30
2018-02-08T00:20:29.832Z,0.20
2018-02-08T00:22:57.541Z,0.20
2018-02-08T00:25:25.181Z,0.10
2018-02-08T00:27:52.854Z,0.20
2018-02-08T00:30:20.556Z,0.00
2018-02-08T00:32:48.495Z,0.00
2018-02-08T00:35:16.146Z,0.00
2018-02-08T00:37:43.843Z,0.00
2018-02-08T00:40:11.508Z,0.00
2018-02-08T00:42:39.174Z,0.00
2018-02-08T00:45:07.369Z,0.00
2018-02-08T00:47:35.007Z,0.00
2018-02-08T00:50:02.657Z,0.10
2018-02-08T00:52:30.366Z,-0.10
2018-02-08T00:57:37.156Z,-0.10
2018-02-08T01:00:04.785Z,0.00
2018-02-08T01:02:32.419Z,-0.10
2018-02-08T01:05:01.844Z,-0.10
2018-02-08T01:07:29.472Z,0.00
2018-02-08T01:09:57.058Z,0.10
2018-02-08T01:12:25.701Z,0.10
2018-02-08T01:14:53.749Z,0.20
2018-02-08T01:17:21.401Z,0.20
2018-02-08T01:19:49.102Z,0.10
2018-02-08T01:22:17.166Z,0.10
2018-02-08T01:24:44.813Z,0.10
2018-02-08T01:27:12.527Z,0.10
2018-02-08T01:32:07.831Z,0.00
2018-02-08T01:34:35.528Z,0.00
2018-02-08T01:37:04.020Z,0.00
2018-02-08T01:39:31.670Z,0.10
2018-02-08T01:41:59.430Z,0.00
2018-02-08T01:44:27.926Z,0.00
2018-02-08T01:49:35.142Z,-0.20
2018-02-08T01:52:02.801Z,-0.10
2018-02-08T01:54:30.447Z,-0.10
2018-02-08T01:56:58.152Z,0.00
2018-02-08T01:59:25.796Z,0.10
2018-02-08T02:01:53.441Z,0.20
2018-02-08T02:04:21.134Z,0.10
2018-02-08T02:06:48.769Z,0.10
2018-02-08T02:09:16.422Z,0.10
2018-02-08T02:11:44.156Z,0.00
2018-02-08T02:14:11.831Z,0.00
2018-02-08T02:16:39.455Z,-0.10
2018-02-08T02:21:46.264Z,-0.10
2018-02-08T02:24:13.959Z,0.00
2018-02-08T02:26:41.603Z,0.00
2018-02-08T02:29:09.246Z,0.00
2018-02-08T02:31:36.948Z,0.10
2018-02-08T02:34:04.596Z,0.00
2018-02-08T02:36:32.240Z,-0.10
2018-02-08T02:39:01.057Z,0.00
2018-02-08T02:41:28.696Z,-0.10
2018-02-08T02:43:56.381Z,-0.10
2018-02-08T02:46:24.046Z,-0.10
2018-02-08T02:48:51.917Z,-0.30
2018-02-08T02:51:19.414Z,-0.30
2018-02-08T02:53:47.120Z,-0.30
2018-02-08T02:56:14.757Z,-0.30
2018-02-08T02:58:42.405Z,-0.40
2018-02-08T03:01:10.125Z,-0.40
2018-02-08T03:03:37.752Z,-0.50
2018-02-08T03:06:05.397Z,-0.40
2018-02-08T03:08:33.106Z,-0.50
2018-02-08T03:11:00.759Z,-0.50
2018-02-08T03:13:28.938Z,-0.40
2018-02-08T03:15:56.641Z,-0.30
2018-02-08T03:18:24.285Z,-0.30
2018-02-08T03:20:51.932Z,-0.30
2018-02-08T03:23:19.643Z,-0.40
2018-02-08T03:25:47.295Z,-0.40
2018-02-08T03:28:16.687Z,-0.50
2018-02-08T03:33:26.874Z,-0.40
2018-02-08T03:38:22.968Z,-0.30
2018-02-08T03:40:50.599Z,-0.30
2018-02-08T03:43:19.052Z,-0.30
2018-02-08T03:45:46.694Z,-0.40
2018-02-08T03:48:14.340Z,-0.30
2018-02-08T03:50:43.000Z,-0.30
2018-02-08T03:53:10.608Z,-0.30
2018-02-08T03:55:38.253Z,-0.30
2018-02-08T03:58:05.966Z,-0.40
2018-02-08T04:00:33.616Z,-0.30
2018-02-08T04:03:01.261Z,-0.40
2018-02-08T04:05:28.977Z,-0.40
2018-02-08T04:07:57.381Z,-0.40
2018-02-08T04:10:25.058Z,-0.30
2018-02-08T04:12:53.602Z,-0.20
2018-02-08T04:15:22.010Z,-0.20
2018-02-08T04:17:49.712Z,-0.40
2018-02-08T04:20:17.968Z,-0.40
2018-02-08T04:22:46.908Z,-0.40
2018-02-08T04:25:14.543Z,-0.30
2018-02-08T04:27:42.256Z,-0.30
2018-02-08T04:30:09.907Z,-0.30
2018-02-08T04:32:37.547Z,-0.30
2018-02-08T04:35:05.366Z,-0.20
2018-02-08T04:37:33.297Z,-0.20
2018-02-08T04:40:12.732Z,-0.30
2018-02-08T04:42:52.256Z,-0.20
2018-02-08T04:50:33.962Z,-0.50
2018-02-08T04:53:02.565Z,-0.40
2018-02-08T04:55:31.241Z,-0.30
2018-02-08T04:57:58.961Z,-0.30
2018-02-08T05:00:26.615Z,-0.40
2018-02-08T05:05:40.437Z,-0.50
2018-02-08T05:08:08.150Z,-0.40
2018-02-08T05:10:35.806Z,-0.40
2018-02-08T05:13:03.444Z,-0.40
2018-02-08T05:15:31.195Z,-0.30
2018-02-08T05:17:58.832Z,-0.30
2018-02-08T05:20:26.477Z,-0.40
2018-02-08T05:25:21.877Z,-0.30
2018-02-08T05:27:49.504Z,-0.30
2018-02-08T05:30:17.212Z,-0.20
2018-02-08T05:32:44.893Z,-0.30
2018-02-08T05:35:12.576Z,-0.40
2018-02-08T05:37:40.306Z,-0.40
2018-02-08T05:40:07.953Z,-0.30
2018-02-08T05:42:35.628Z,-0.40
2018-02-08T05:45:03.325Z,-0.40
2018-02-08T05:47:31.004Z,-0.40
2018-02-08T05:49:58.672Z,-0.40
2018-02-08T05:52:26.392Z,-0.40
2018-02-08T05:54:54.042Z,-0.30
2018-02-08T05:57:21.684Z,-0.20
2018-02-08T05:59:49.390Z,-0.20
2018-02-08T06:02:17.357Z,-0.20
2018-02-08T06:04:45.068Z,-0.20
2018-02-08T06:07:12.772Z,-0.20
2018-02-08T06:09:41.067Z,0.10
2018-02-08T06:14:41.482Z,0.30
2018-02-08T06:17:09.119Z,0.00
2018-02-08T06:22:05.817Z,-0.10
2018-02-08T06:24:33.465Z,-0.10
2018-02-08T06:29:40.273Z,-0.20
2018-02-08T06:32:07.921Z,-0.30
2018-02-08T06:34:35.578Z,-0.30
2018-02-08T06:37:04.228Z,-0.30
2018-02-08T06:39:31.876Z,-0.20
2018-02-08T06:41:59.516Z,-0.20
2018-02-08T06:44:27.229Z,-0.40
2018-02-08T06:46:54.885Z,-0.40
2018-02-08T06:51:50.241Z,-0.40
2018-02-08T06:54:17.884Z,-0.50
2018-02-08T06:56:46.149Z,-0.50
2018-02-08T06:59:13.853Z,-0.50
2018-02-08T07:01:42.329Z,-0.50
2018-02-08T07:04:12.371Z,-0.40
2018-02-08T07:06:40.046Z,-0.40
2018-02-08T07:11:35.365Z,-0.50
2018-02-08T07:14:03.064Z,-0.50
2018-02-08T07:16:30.708Z,-0.50
2018-02-08T07:18:59.207Z,-0.50
2018-02-08T07:21:26.913Z,-0.40
2018-02-08T07:23:54.558Z,-0.40
2018-02-08T07:26:22.203Z,-0.50
2018-02-08T07:28:49.896Z,-0.50
2018-02-08T07:31:17.537Z,-0.50
2018-02-08T07:33:45.215Z,-0.50
2018-02-08T07:36:14.116Z,-0.50
2018-02-08T07:38:41.728Z,-0.40
2018-02-08T07:41:09.895Z,-0.50
2018-02-08T07:43:37.535Z,-0.50
2018-02-08T07:46:05.535Z,-0.40
2018-02-08T07:48:33.185Z,-0.30
2018-02-08T07:51:00.881Z,-0.40
2018-02-08T07:53:28.526Z,-0.30
2018-02-08T08:01:03.265Z,-0.20
2018-02-08T08:03:30.896Z,-0.20
2018-02-08T08:05:59.553Z,-0.20
2018-02-08T08:08:27.196Z,-0.30
2018-02-08T08:10:54.858Z,-0.30
2018-02-08T08:13:24.041Z,-0.30
2018-02-08T08:15:52.077Z,-0.40
2018-02-08T08:18:25.645Z,-0.50
2018-02-08T08:20:53.292Z,-0.40
2018-02-08T08:23:22.838Z,-0.40
2018-02-08T08:25:48.645Z,-0.40
2018-02-08T08:28:16.324Z,-0.40
2018-02-08T08:30:43.969Z,-0.40
2018-02-08T08:33:11.677Z,-0.40
2018-02-08T08:35:39.329Z,-0.30
2018-02-08T08:38:06.981Z,-0.30
2018-02-08T08:40:34.721Z,-0.20
2018-02-08T08:43:03.290Z,-0.20
2018-02-08T08:47:58.641Z,-0.20
2018-02-08T08:50:26.291Z,-0.30
2018-02-08T08:52:53.941Z,-0.20
2018-02-08T08:55:21.644Z,-0.30
2018-02-08T08:57:49.290Z,-0.20
2018-02-08T09:00:16.959Z,-0.20
2018-02-08T09:02:44.660Z,0.00
2018-02-08T09:05:12.321Z,-0.10
2018-02-08T09:07:40.528Z,-0.10
2018-02-08T09:10:08.238Z,-0.10
2018-02-08T09:12:35.905Z,-0.10
2018-02-08T09:15:03.551Z,-0.10
2018-02-08T09:17:31.281Z,-0.10
2018-02-08T09:19:58.933Z,-0.10
2018-02-08T09:25:06.745Z,0.10
2018-02-08T09:27:34.393Z,0.00
2018-02-08T09:30:02.028Z,0.10
2018-02-08T09:32:29.744Z,0.00
2018-02-08T09:34:57.425Z,0.30
2018-02-08T09:37:25.078Z,0.30
2018-02-08T09:39:52.793Z,0.40
2018-02-08T09:42:20.433Z,0.30
2018-02-08T09:44:48.081Z,0.40
2018-02-08T09:49:56.283Z,0.40
2018-02-08T09:55:05.116Z,0.70
2018-02-08T09:57:32.816Z,0.60
2018-02-08T10:00:00.462Z,0.50
2018-02-08T10:02:28.101Z,0.50
2018-02-08T10:04:55.812Z,0.50
2018-02-08T10:07:23.555Z,0.60
2018-02-08T10:09:52.047Z,0.70
2018-02-08T10:12:19.708Z,0.70
2018-02-08T10:14:47.400Z,0.90
2018-02-08T10:17:15.055Z,1.10
2018-02-08T10:19:42.766Z,0.90
2018-02-08T10:22:10.396Z,1.10
2018-02-08T10:24:38.242Z,1.10
2018-02-08T10:27:05.985Z,1.10
2018-02-08T10:29:33.698Z,0.90
2018-02-08T10:32:01.341Z,1.00
2018-02-08T10:34:29.051Z,1.00
2018-02-08T10:36:57.716Z,1.10
2018-02-08T10:39:25.353Z,1.40
2018-02-08T10:41:53.057Z,1.10
2018-02-08T10:44:20.693Z,1.20
2018-02-08T10:46:48.786Z,1.30
2018-02-08T10:49:16.315Z,1.20
2018-02-08T10:51:44.401Z,1.50
2018-02-08T10:54:12.050Z,1.50
2018-02-08T10:56:39.756Z,1.60
2018-02-08T10:59:07.559Z,1.60
2018-02-08T11:01:35.196Z,1.50
2018-02-08T11:04:02.901Z,1.40
2018-02-08T11:06:30.537Z,1.50
2018-02-08T11:08:58.252Z,1.70
2018-02-08T11:11:25.950Z,1.70
2018-02-08T11:13:53.593Z,1.90
2018-02-08T11:16:21.493Z,1.90
2018-02-08T11:21:30.292Z,1.90
2018-02-08T11:23:58.033Z,2.00
2018-02-08T11:26:25.685Z,2.20
2018-02-08T11:28:53.319Z,2.00
2018-02-08T11:31:21.044Z,1.90
2018-02-08T11:33:49.573Z,2.10
2018-02-08T11:36:17.227Z,2.20
2018-02-08T11:38:44.921Z,2.90
2018-02-08T11:41:12.567Z,3.30
2018-02-08T11:43:40.213Z,3.50
2018-02-08T11:46:07.999Z,3.60
2018-02-08T11:48:35.642Z,3.00
2018-02-08T11:51:03.293Z,3.00
2018-02-08T11:53:31.013Z,2.90
2018-02-08T11:55:58.660Z,3.40
2018-02-08T12:00:53.990Z,3.50
2018-02-08T12:03:21.627Z,3.80
2018-02-08T12:08:17.008Z,3.20
2018-02-08T12:10:44.653Z,3.60
2018-02-08T12:13:12.293Z,3.70
2018-02-08T12:15:40.036Z,3.70
2018-02-08T12:18:07.732Z,3.30
2018-02-08T12:20:35.298Z,3.20
2018-02-08T12:23:02.988Z,3.30
2018-02-08T12:25:30.641Z,3.50
2018-02-08T12:27:58.296Z,3.10
2018-02-08T12:30:25.984Z,3.50
2018-02-08T12:32:53.629Z,4.20
2018-02-08T12:35:21.272Z,4.10
2018-02-08T12:37:49.613Z,4.20
2018-02-08T12:40:17.257Z,3.80
2018-02-08T12:42:44.885Z,3.40
2018-02-08T12:47:52.522Z,3.40
2018-02-08T12:50:21.200Z,3.60
2018-02-08T12:52:48.889Z,4.00
2018-02-08T12:55:16.538Z,4.30
2018-02-08T12:57:45.141Z,4.90
2018-02-08T13:00:12.804Z,5.60
2018-02-08T13:02:40.444Z,4.90
2018-02-08T13:05:08.989Z,4.50
2018-02-08T13:07:36.638Z,4.40
2018-02-08T13:10:04.278Z,4.80
2018-02-08T13:12:31.987Z,5.30
2018-02-08T13:14:59.658Z,5.30
2018-02-08T13:17:27.304Z,4.00
2018-02-08T13:19:54.999Z,4.00
2018-02-08T13:22:22.644Z,3.90
2018-02-08T13:24:50.289Z,4.20
2018-02-08T13:27:18.008Z,3.90
2018-02-08T13:29:45.749Z,3.80
2018-02-08T13:32:14.198Z,4.20
2018-02-08T13:37:09.580Z,3.80
2018-02-08T13:39:38.069Z,4.00
2018-02-08T13:42:10.625Z,4.00
2018-02-08T13:44:38.266Z,3.70
2018-02-08T13:52:29.235Z,4.10
2018-02-08T14:03:02.395Z,3.80
2018-02-08T14:05:30.133Z,3.70
2018-02-08T14:07:57.809Z,3.50
2018-02-08T14:10:25.448Z,3.30
2018-02-08T14:12:53.170Z,3.50
2018-02-08T14:15:20.826Z,3.40
2018-02-08T14:20:16.176Z,3.10
2018-02-08T14:22:43.844Z,3.20
2018-02-08T14:25:11.478Z,3.20
2018-02-08T14:27:39.195Z,3.20
2018-02-08T14:30:06.816Z,3.20
2018-02-08T14:32:34.464Z,3.20
2018-02-08T14:35:03.055Z,3.10
2018-02-08T14:37:30.709Z,3.10
2018-02-08T14:39:58.335Z,3.20
2018-02-08T14:42:26.025Z,3.00
2018-02-08T14:44:53.663Z,3.20
2018-02-08T14:47:21.298Z,3.20
2018-02-08T14:49:49.013Z,3.10
2018-02-08T14:52:16.925Z,3.20
2018-02-08T14:54:44.569Z,3.00
2018-02-08T14:57:12.266Z,3.20
2018-02-08T14:59:39.912Z,3.20
2018-02-08T15:02:07.558Z,3.20
2018-02-08T15:04:35.247Z,3.10
2018-02-08T15:07:02.891Z,3.00
2018-02-08T15:09:30.542Z,3.20
2018-02-08T15:11:59.223Z,3.30
2018-02-08T15:14:26.847Z,3.20
2018-02-08T15:16:54.488Z,3.00
2018-02-08T15:19:22.229Z,2.90
2018-02-08T15:21:53.578Z,2.90
2018-02-08T15:27:00.377Z,3.00
2018-02-08T15:29:28.010Z,3.10
2018-02-08T15:31:55.652Z,3.10
2018-02-08T15:37:04.640Z,3.10
2018-02-08T15:39:32.332Z,3.10
2018-02-08T15:42:00.830Z,3.20
2018-02-08T15:44:28.469Z,3.00
2018-02-08T15:46:56.167Z,3.00
2018-02-08T15:49:23.802Z,3.00
2018-02-08T15:51:51.463Z,3.00
2018-02-08T15:54:20.171Z,3.00
2018-02-08T15:56:47.806Z,3.10
2018-02-08T15:59:15.444Z,3.00
2018-02-08T16:01:43.153Z,2.90
2018-02-08T16:04:11.511Z,2.90
2018-02-08T16:06:39.152Z,2.80
2018-02-08T16:09:06.871Z,2.60
2018-02-08T16:11:34.517Z,2.70
2018-02-08T16:14:02.229Z,2.70
2018-02-08T16:16:29.930Z,2.60
2018-02-08T16:18:57.578Z,2.50
2018-02-08T16:21:25.221Z,2.40
2018-02-08T16:23:52.935Z,2.30
2018-02-08T16:26:20.572Z,2.20
2018-02-08T16:28:48.213Z,2.10
2018-02-08T16:31:16.749Z,2.20
2018-02-08T16:33:44.392Z,2.10
2018-02-08T16:36:12.078Z,1.90
2018-02-08T16:41:07.442Z,2.00
2018-02-08T16:43:35.978Z,1.80
2018-02-08T16:46:03.680Z,1.70
2018-02-08T16:48:31.836Z,1.70
2018-02-08T16:51:00.654Z,1.70
2018-02-08T16:53:28.321Z,1.70
2018-02-08T16:55:55.960Z,1.60
2018-02-08T17:01:03.741Z,1.50
2018-02-08T17:05:59.397Z,1.50
2018-02-08T17:08:27.096Z,1.50
2018-02-08T17:10:54.742Z,1.50
2018-02-08T17:13:22.377Z,1.50
2018-02-08T17:15:50.096Z,1.50
2018-02-08T17:18:18.196Z,1.50
2018-02-08T17:20:45.842Z,1.50
2018-02-08T17:25:41.310Z,1.50
2018-02-08T17:28:08.947Z,1.40
2018-02-08T17:30:36.733Z,1.30
2018-02-08T17:33:04.390Z,1.40
2018-02-08T17:35:32.036Z,1.50
2018-02-08T17:37:59.728Z,1.30
2018-02-08T17:43:07.703Z,1.30
2018-02-08T17:45:35.349Z,1.30
2018-02-08T17:50:30.689Z,1.30
2018-02-08T17:52:59.237Z,1.20
2018-02-08T17:55:26.881Z,1.10
2018-02-08T17:57:54.588Z,1.00
2018-02-08T18:00:22.247Z,1.10
2018-02-08T18:02:49.918Z,1.10
2018-02-08T18:05:17.629Z,1.10
2018-02-08T18:07:45.266Z,1.10
2018-02-08T18:10:12.927Z,1.10
2018-02-08T18:12:40.610Z,1.00
2018-02-08T18:15:08.296Z,1.10
2018-02-08T18:17:35.944Z,1.00
2018-02-08T18:22:35.426Z,1.10
2018-02-08T18:25:03.044Z,1.10
2018-02-08T18:27:30.748Z,1.10
2018-02-08T18:29:58.410Z,1.10
2018-02-08T18:32:27.334Z,1.00
2018-02-08T18:34:54.953Z,0.90
2018-02-08T18:37:23.430Z,0.90
2018-02-08T18:39:51.098Z,1.00
2018-02-08T18:42:18.776Z,0.90
2018-02-08T18:44:46.415Z,1.10
2018-02-08T18:47:14.916Z,1.10
2018-02-08T18:49:42.647Z,1.10
2018-02-08T18:52:10.794Z,1.00
2018-02-08T18:54:39.148Z,1.00
2018-02-08T18:57:06.818Z,0.90
2018-02-08T19:04:41.955Z,1.00
2018-02-08T19:07:10.436Z,1.20
2018-02-08T19:09:38.952Z,1.10
2018-02-08T19:12:06.635Z,1.10
2018-02-08T19:14:34.378Z,1.20
2018-02-08T19:19:29.695Z,1.40
2018-02-08T19:21:57.330Z,1.40
2018-02-08T19:24:24.990Z,1.50
2018-02-08T19:26:53.456Z,1.40
2018-02-08T19:29:21.090Z,1.30
2018-02-08T19:31:49.240Z,1.20
2018-02-08T19:34:16.933Z,1.10
2018-02-08T19:36:44.569Z,1.30
2018-02-08T19:39:12.302Z,1.30
2018-02-08T19:44:08.469Z,1.50
2018-02-08T19:46:36.113Z,1.60
2018-02-08T19:49:03.888Z,1.70
2018-02-08T19:51:31.522Z,1.60
2018-02-08T19:53:59.223Z,1.50
2018-02-08T19:56:26.896Z,1.60
2018-02-08T19:58:55.752Z,1.60
2018-02-08T20:01:23.506Z,1.60
2018-02-08T20:03:51.880Z,1.40
2018-02-08T20:06:19.489Z,1.30
2018-02-08T20:08:47.160Z,1.30
2018-02-08T20:11:14.845Z,1.40
2018-02-08T20:13:43.346Z,1.40
2018-02-08T20:18:38.706Z,1.50
2018-02-08T20:21:06.352Z,1.60
2018-02-08T20:23:34.011Z,1.30
2018-02-08T20:28:40.820Z,0.90
2018-02-08T20:33:49.587Z,0.90
2018-02-08T20:36:17.255Z,0.90
2018-02-08T20:41:27.914Z,0.90
2018-02-08T20:46:34.856Z,0.80
2018-02-08T20:49:02.505Z,0.90
2018-02-08T20:51:30.131Z,0.80
2018-02-08T20:53:57.845Z,0.80
2018-02-08T20:56:25.730Z,0.90
2018-02-08T20:58:53.743Z,0.80
2018-02-08T21:01:21.402Z,0.90
2018-02-08T21:03:49.263Z,0.90
2018-02-08T21:06:16.907Z,0.90
2018-02-08T21:08:44.617Z,0.80
2018-02-08T21:11:12.261Z,0.80
2018-02-08T21:16:07.642Z,0.80
2018-02-08T21:18:35.923Z,0.90
2018-02-08T21:21:03.585Z,1.00
2018-02-08T21:23:31.289Z,0.90
2018-02-08T21:25:58.933Z,0.90
2018-02-08T21:28:26.582Z,1.00
2018-02-08T21:30:54.279Z,0.90
2018-02-08T21:33:21.918Z,0.90
2018-02-08T21:35:49.563Z,0.90
2018-02-08T21:38:17.280Z,1.00
2018-02-08T21:40:44.914Z,1.00
2018-02-08T21:43:12.554Z,1.10
2018-02-08T21:45:40.316Z,1.10
2018-02-08T21:48:07.933Z,1.10
2018-02-08T21:50:37.786Z,1.10
2018-02-08T21:53:05.334Z,1.10
2018-02-08T21:55:33.219Z,0.90
2018-02-08T21:58:00.637Z,0.90
2018-02-08T22:00:28.431Z,0.80
2018-02-08T22:02:56.260Z,0.80
2018-02-08T22:05:23.838Z,0.70
2018-02-08T22:12:58.341Z,0.70
2018-02-08T22:15:25.981Z,0.80
2018-02-08T22:20:21.325Z,0.70
2018-02-08T22:22:50.755Z,0.60
2018-02-08T22:28:00.310Z,0.60
2018-02-08T22:30:28.180Z,0.50
2018-02-08T22:32:55.835Z,0.70
2018-02-08T22:35:23.660Z,0.80
2018-02-08T22:37:51.306Z,0.80
2018-02-08T22:40:18.942Z,0.80
2018-02-08T22:42:46.698Z,0.70
2018-02-08T22:45:14.281Z,0.70
2018-02-08T22:47:41.918Z,0.70
2018-02-08T22:50:09.612Z,0.80
2018-02-08T22:52:37.246Z,0.70
2018-02-08T22:55:06.352Z,0.60
2018-02-08T22:57:34.092Z,0.60
2018-02-08T23:00:01.746Z,0.60
2018-02-08T23:02:29.388Z,0.60
2018-02-08T23:04:57.144Z,0.80
2018-02-08T23:07:28.023Z,0.80
2018-02-08T23:09:57.287Z,0.90
2018-02-08T23:12:25.312Z,1.20
2018-02-08T23:14:54.680Z,0.70
2018-02-08T23:17:22.289Z,0.60
2018-02-08T23:19:51.754Z,0.50
2018-02-08T23:22:19.380Z,0.60
2018-02-08T23:24:47.080Z,0.50
2018-02-08T23:27:14.731Z,0.50
2018-02-08T23:29:42.398Z,0.50
2018-02-08T23:32:10.132Z,0.40
2018-02-08T23:34:37.772Z,0.50
2018-02-08T23:39:37.490Z,0.30
2018-02-08T23:42:05.549Z,0.20
2018-02-08T23:44:33.193Z,0.20
2018-02-08T23:47:01.785Z,0.30
2018-02-08T23:49:29.426Z,0.10
2018-02-08T23:54:36.225Z,-0.70
2018-02-08T23:57:05.959Z,-0.50
